createdAt,value
2022-08-01T00:01:35.100Z,19.68
2022-08-01T00:04:03.770Z,19.70
2022-08-01T00:06:32.305Z,19.74
2022-08-01T00:09:00.855Z,19.71
2022-08-01T00:11:29.268Z,19.64
2022-08-01T00:13:59.716Z,19.58
2022-08-01T00:16:28.659Z,19.39
2022-08-01T00:18:57.518Z,19.45
2022-08-01T00:21:26.174Z,19.39
2022-08-01T00:23:54.653Z,19.31
2022-08-01T00:26:23.414Z,19.26
2022-08-01T00:28:51.993Z,19.22
2022-08-01T00:31:22.556Z,19.17
2022-08-01T00:33:51.467Z,19.12
2022-08-01T00:36:19.914Z,18.59
2022-08-01T00:38:48.807Z,19.08
2022-08-01T00:41:17.376Z,19.05
2022-08-01T00:43:45.904Z,19.00
2022-08-01T00:46:14.615Z,18.97
2022-08-01T00:48:44.577Z,18.93
2022-08-01T00:51:13.653Z,18.75
2022-08-01T00:53:51.711Z,18.88
2022-08-01T00:56:21.681Z,18.85
2022-08-01T00:58:50.521Z,18.83
2022-08-01T01:01:21.828Z,18.65
2022-08-01T01:04:00.370Z,18.73
2022-08-01T01:06:37.042Z,18.70
2022-08-01T01:09:18.310Z,18.67
2022-08-01T01:11:54.961Z,18.64
2022-08-01T01:14:33.275Z,17.59
2022-08-01T01:17:05.169Z,18.44
2022-08-01T01:19:41.880Z,18.51
2022-08-01T01:22:30.006Z,18.40
2022-08-01T01:25:10.526Z,18.41
2022-08-01T01:27:49.909Z,18.35
2022-08-01T01:30:21.339Z,18.30
2022-08-01T01:32:54.047Z,18.05
2022-08-01T01:35:25.953Z,18.21
2022-08-01T01:37:58.570Z,18.22
2022-08-01T01:40:28.441Z,18.20
2022-08-01T01:42:59.909Z,18.22
2022-08-01T01:45:32.623Z,17.80
2022-08-01T01:48:03.650Z,18.23
2022-08-01T01:50:33.288Z,18.23
2022-08-01T01:53:04.224Z,18.03
2022-08-01T01:55:36.408Z,18.21
2022-08-01T01:58:20.916Z,18.02
2022-08-01T02:00:55.461Z,17.88
2022-08-01T02:03:26.141Z,17.75
2022-08-01T02:05:58.213Z,18.12
2022-08-01T02:08:27.610Z,18.08
2022-08-01T02:11:18.027Z,18.02
2022-08-01T02:13:49.320Z,17.96
2022-08-01T02:16:19.890Z,17.75
2022-08-01T02:18:49.104Z,17.92
2022-08-01T02:21:23.744Z,17.91
2022-08-01T02:23:54.122Z,17.91
2022-08-01T02:26:25.230Z,17.90
2022-08-01T02:28:58.638Z,17.90
2022-08-01T02:31:29.925Z,17.90
2022-08-01T02:34:03.399Z,17.89
2022-08-01T02:36:35.380Z,17.89
2022-08-01T02:39:06.838Z,17.92
2022-08-01T02:41:39.072Z,17.41
2022-08-01T02:44:11.908Z,17.97
2022-08-01T02:46:47.981Z,17.72
2022-08-01T02:49:17.321Z,18.04
2022-08-01T02:51:49.319Z,18.06
2022-08-01T02:54:21.276Z,18.04
2022-08-01T02:56:51.170Z,18.04
2022-08-01T02:59:27.050Z,18.07
2022-08-01T03:01:58.693Z,18.10
2022-08-01T03:04:29.219Z,18.02
2022-08-01T03:06:59.813Z,18.05
2022-08-01T03:09:30.260Z,18.06
2022-08-01T03:12:01.516Z,18.04
2022-08-01T03:14:32.449Z,18.03
2022-08-01T03:17:03.537Z,18.01
2022-08-01T03:19:34.054Z,17.98
2022-08-01T03:22:05.337Z,17.95
2022-08-01T03:24:36.025Z,17.92
2022-08-01T03:27:06.356Z,17.90
2022-08-01T03:29:36.241Z,17.89
2022-08-01T03:32:08.204Z,17.88
2022-08-01T03:34:37.082Z,17.86
2022-08-01T03:37:11.026Z,17.86
2022-08-01T03:39:47.712Z,17.84
2022-08-01T03:42:20.930Z,17.74
2022-08-01T03:44:57.253Z,17.87
2022-08-01T03:47:32.293Z,17.88
2022-08-01T03:50:01.818Z,17.91
2022-08-01T03:52:32.407Z,17.74
2022-08-01T03:55:03.812Z,17.97
2022-08-01T03:57:36.108Z,17.98
2022-08-01T04:00:10.480Z,18.01
2022-08-01T04:02:40.894Z,17.95
2022-08-01T04:05:10.817Z,18.01
2022-08-01T04:07:40.405Z,18.01
2022-08-01T04:10:10.096Z,18.10
2022-08-01T04:12:38.545Z,17.94
2022-08-01T04:15:08.621Z,18.08
2022-08-01T04:17:37.073Z,18.10
2022-08-01T04:20:08.256Z,17.94
2022-08-01T04:22:37.367Z,18.14
2022-08-01T04:25:11.900Z,18.17
2022-08-01T04:27:48.613Z,18.19
2022-08-01T04:30:25.720Z,18.13
2022-08-01T04:32:56.973Z,18.20
2022-08-01T04:36:01.684Z,18.00
2022-08-01T04:38:24.272Z,18.25
2022-08-01T04:40:54.739Z,17.95
2022-08-01T04:43:24.141Z,18.29
2022-08-01T04:45:54.033Z,18.35
2022-08-01T04:48:23.399Z,18.35
2022-08-01T04:50:53.739Z,18.37
2022-08-01T04:53:24.183Z,18.37
2022-08-01T04:55:52.753Z,18.38
2022-08-01T04:58:21.649Z,18.41
2022-08-01T05:00:50.397Z,18.42
2022-08-01T05:03:18.830Z,18.41
2022-08-01T05:05:48.256Z,17.84
2022-08-01T05:08:18.385Z,18.36
2022-08-01T05:10:47.050Z,18.33
2022-08-01T05:13:17.048Z,18.33
2022-08-01T05:15:46.763Z,18.33
2022-08-01T05:18:15.257Z,18.36
2022-08-01T05:20:44.034Z,18.10
2022-08-01T05:23:29.790Z,18.41
2022-08-01T05:26:06.407Z,18.15
2022-08-01T05:28:34.870Z,18.46
2022-08-01T05:31:03.510Z,18.45
2022-08-01T05:33:31.925Z,18.47
2022-08-01T05:36:01.601Z,18.41
2022-08-01T05:38:30.134Z,18.42
2022-08-01T05:40:58.990Z,18.33
2022-08-01T05:43:29.313Z,18.27
2022-08-01T05:45:59.458Z,18.23
2022-08-01T05:48:28.089Z,18.23
2022-08-01T05:50:58.571Z,18.24
2022-08-01T05:53:27.628Z,18.28
2022-08-01T05:55:56.177Z,17.91
2022-08-01T05:58:25.488Z,18.26
2022-08-01T06:00:55.467Z,18.26
2022-08-01T06:03:24.266Z,17.95
2022-08-01T06:05:54.421Z,18.30
2022-08-01T06:08:22.860Z,18.30
2022-08-01T06:10:51.745Z,18.31
2022-08-01T06:13:20.891Z,18.34
2022-08-01T06:15:50.110Z,18.38
2022-08-01T06:18:20.537Z,18.43
2022-08-01T06:20:49.233Z,18.37
2022-08-01T06:23:32.706Z,18.59
2022-08-01T06:26:01.632Z,18.66
2022-08-01T06:28:30.810Z,18.74
2022-08-01T06:31:00.937Z,18.64
2022-08-01T06:33:31.009Z,18.92
2022-08-01T06:36:00.160Z,18.56
2022-08-01T06:38:28.609Z,18.93
2022-08-01T06:40:58.042Z,18.96
2022-08-01T06:43:27.170Z,19.14
2022-08-01T06:45:55.662Z,19.25
2022-08-01T06:48:24.129Z,19.27
2022-08-01T06:51:09.136Z,19.27
2022-08-01T06:53:38.728Z,19.32
2022-08-01T06:56:09.798Z,19.31
2022-08-01T06:58:38.524Z,19.30
2022-08-01T07:01:08.627Z,19.31
2022-08-01T07:03:54.508Z,19.31
2022-08-01T07:06:27.600Z,19.07
2022-08-01T07:08:56.323Z,19.37
2022-08-01T07:11:25.868Z,19.23
2022-08-01T07:13:54.720Z,19.48
2022-08-01T07:16:23.273Z,19.50
2022-08-01T07:18:52.225Z,19.54
2022-08-01T07:21:40.767Z,19.58
2022-08-01T07:24:15.164Z,19.62
2022-08-01T07:26:53.169Z,19.67
2022-08-01T07:29:24.468Z,19.65
2022-08-01T07:31:54.189Z,19.48
2022-08-01T07:34:23.353Z,19.56
2022-08-01T07:36:52.431Z,19.51
2022-08-01T07:39:22.402Z,19.49
2022-08-01T07:42:06.581Z,19.42
2022-08-01T07:44:36.726Z,19.37
2022-08-01T07:47:06.120Z,19.18
2022-08-01T07:49:39.599Z,19.40
2022-08-01T07:52:08.651Z,19.40
2022-08-01T07:54:38.771Z,19.48
2022-08-01T07:57:08.359Z,19.46
2022-08-01T07:59:37.236Z,19.47
2022-08-01T08:02:06.282Z,19.38
2022-08-01T08:04:35.143Z,19.37
2022-08-01T08:07:05.021Z,19.30
2022-08-01T08:09:37.309Z,19.36
2022-08-01T08:12:09.704Z,19.41
2022-08-01T08:14:39.447Z,19.32
2022-08-01T08:17:08.649Z,19.21
2022-08-01T08:19:39.653Z,19.11
2022-08-01T08:22:09.898Z,19.04
2022-08-01T08:24:46.282Z,18.99
2022-08-01T08:27:17.256Z,18.95
2022-08-01T08:29:49.442Z,18.80
2022-08-01T08:32:17.878Z,18.67
2022-08-01T08:34:47.149Z,18.54
2022-08-01T08:37:18.332Z,18.44
2022-08-01T08:39:49.439Z,18.37
2022-08-01T08:42:20.705Z,18.36
2022-08-01T08:44:49.676Z,18.42
2022-08-01T08:47:20.546Z,18.48
2022-08-01T08:49:50.816Z,18.55
2022-08-01T08:52:21.292Z,18.62
2022-08-01T08:54:50.961Z,18.68
2022-08-01T08:57:22.814Z,18.72
2022-08-01T08:59:55.319Z,18.76
2022-08-01T09:02:24.539Z,18.84
2022-08-01T09:04:53.855Z,18.96
2022-08-01T09:07:24.234Z,19.04
2022-08-01T09:09:52.795Z,19.09
2022-08-01T09:12:23.968Z,19.08
2022-08-01T09:14:54.645Z,19.05
2022-08-01T09:17:23.554Z,19.01
2022-08-01T09:19:54.491Z,19.05
2022-08-01T09:22:25.250Z,19.09
2022-08-01T09:25:01.945Z,19.18
2022-08-01T09:27:32.037Z,19.29
2022-08-01T09:30:12.027Z,18.71
2022-08-01T09:32:55.610Z,19.45
2022-08-01T09:35:29.856Z,19.55
2022-08-01T09:38:15.830Z,19.55
2022-08-01T09:40:52.827Z,19.54
2022-08-01T09:43:24.925Z,19.39
2022-08-01T09:45:53.809Z,19.58
2022-08-01T09:48:28.807Z,19.61
2022-08-01T09:51:04.838Z,19.63
2022-08-01T09:53:52.279Z,19.70
2022-08-01T09:56:23.157Z,19.58
2022-08-01T09:59:02.814Z,19.85
2022-08-01T10:01:44.158Z,19.92
2022-08-01T10:04:15.248Z,19.98
2022-08-01T10:06:46.101Z,20.08
2022-08-01T10:09:15.821Z,20.15
2022-08-01T10:11:45.564Z,20.18
2022-08-01T10:14:17.860Z,20.19
2022-08-01T10:16:52.894Z,20.12
2022-08-01T10:19:24.509Z,20.12
2022-08-01T10:21:58.210Z,19.95
2022-08-01T10:24:30.586Z,20.15
2022-08-01T10:27:08.261Z,20.23
2022-08-01T10:29:45.639Z,20.33
2022-08-01T10:32:15.521Z,20.24
2022-08-01T10:34:44.951Z,20.46
2022-08-01T10:37:17.061Z,20.40
2022-08-01T10:39:46.991Z,20.39
2022-08-01T10:42:16.082Z,20.10
2022-08-01T10:44:49.023Z,20.23
2022-08-01T10:47:26.748Z,20.44
2022-08-01T10:50:06.051Z,20.46
2022-08-01T10:52:39.578Z,20.47
2022-08-01T10:55:11.013Z,20.49
2022-08-01T10:57:52.700Z,20.56
2022-08-01T11:00:25.388Z,20.61
2022-08-01T11:03:04.350Z,20.30
2022-08-01T11:05:35.779Z,20.83
2022-08-01T11:08:08.858Z,20.92
2022-08-01T11:10:40.374Z,20.90
2022-08-01T11:13:09.960Z,20.96
2022-08-01T11:15:50.008Z,20.99
2022-08-01T11:18:33.131Z,20.98
2022-08-01T11:21:59.202Z,21.13
2022-08-01T11:23:53.073Z,21.25
2022-08-01T11:26:28.794Z,21.35
2022-08-01T11:29:20.528Z,21.35
2022-08-01T11:31:52.980Z,21.48
2022-08-01T11:34:22.286Z,21.49
2022-08-01T11:37:09.797Z,21.56
2022-08-01T11:39:39.070Z,21.58
2022-08-01T11:42:30.458Z,21.57
2022-08-01T11:44:59.022Z,21.54
2022-08-01T11:47:50.225Z,21.62
2022-08-01T11:50:33.338Z,21.69
2022-08-01T11:53:02.477Z,21.47
2022-08-01T11:55:32.604Z,21.78
2022-08-01T11:58:02.973Z,21.83
2022-08-01T12:00:32.761Z,21.89
2022-08-01T12:03:04.750Z,21.97
2022-08-01T12:05:43.370Z,21.99
2022-08-01T12:08:13.046Z,21.50
2022-08-01T12:10:47.140Z,22.04
2022-08-01T12:13:19.224Z,22.06
2022-08-01T12:15:50.561Z,22.10
2022-08-01T12:18:23.494Z,22.17
2022-08-01T12:20:57.123Z,22.28
2022-08-01T12:23:26.249Z,22.39
2022-08-01T12:25:55.744Z,22.44
2022-08-01T12:28:24.402Z,22.40
2022-08-01T12:30:53.168Z,22.33
2022-08-01T12:33:23.529Z,21.73
2022-08-01T12:35:53.938Z,22.27
2022-08-01T12:38:26.175Z,22.05
2022-08-01T12:40:55.010Z,22.29
2022-08-01T12:43:28.883Z,22.46
2022-08-01T12:46:00.780Z,22.69
2022-08-01T12:48:33.555Z,22.83
2022-08-01T12:51:03.400Z,22.83
2022-08-01T12:53:40.337Z,22.90
2022-08-01T12:56:11.750Z,22.98
2022-08-01T12:58:41.051Z,23.01
2022-08-01T13:01:11.719Z,23.38
2022-08-01T13:03:42.754Z,23.45
2022-08-01T13:06:16.461Z,23.66
2022-08-01T13:08:47.825Z,23.61
2022-08-01T13:11:19.259Z,23.56
2022-08-01T13:13:49.400Z,23.31
2022-08-01T13:16:30.962Z,23.35
2022-08-01T13:19:08.742Z,23.20
2022-08-01T13:21:53.754Z,23.13
2022-08-01T13:24:28.430Z,23.46
2022-08-01T13:27:00.878Z,23.61
2022-08-01T13:29:34.158Z,23.54
2022-08-01T13:32:27.604Z,23.60
2022-08-01T13:35:06.046Z,23.64
2022-08-01T13:37:34.719Z,23.56
2022-08-01T13:40:03.549Z,23.48
2022-08-01T13:42:33.092Z,23.38
2022-08-01T13:45:01.588Z,23.21
2022-08-01T13:47:32.598Z,23.28
2022-08-01T13:50:04.169Z,23.18
2022-08-01T13:52:37.000Z,23.16
2022-08-01T13:55:09.185Z,23.18
2022-08-01T13:57:39.630Z,22.87
2022-08-01T14:00:10.927Z,23.21
2022-08-01T14:02:39.340Z,23.17
2022-08-01T14:05:08.773Z,23.14
2022-08-01T14:07:38.752Z,23.23
2022-08-01T14:10:19.655Z,23.31
2022-08-01T14:12:49.975Z,23.21
2022-08-01T14:15:38.893Z,23.28
2022-08-01T14:18:10.690Z,23.41
2022-08-01T14:20:40.794Z,23.25
2022-08-01T14:23:11.297Z,23.35
2022-08-01T14:26:03.693Z,23.38
2022-08-01T14:28:29.701Z,23.12
2022-08-01T14:30:58.352Z,23.31
2022-08-01T14:33:27.352Z,23.02
2022-08-01T14:36:05.968Z,23.28
2022-08-01T14:38:46.797Z,23.31
2022-08-01T14:41:15.886Z,23.35
2022-08-01T14:43:44.405Z,23.44
2022-08-01T14:46:13.823Z,23.35
2022-08-01T14:48:42.654Z,23.56
2022-08-01T14:51:11.554Z,23.64
2022-08-01T14:53:42.904Z,23.74
2022-08-01T14:56:20.688Z,23.87
2022-08-01T14:58:49.524Z,24.00
2022-08-01T15:01:19.229Z,23.64
2022-08-01T15:03:49.147Z,24.07
2022-08-01T15:06:17.898Z,23.95
2022-08-01T15:08:46.465Z,23.85
2022-08-01T15:11:15.371Z,23.89
2022-08-01T15:13:45.457Z,24.02
2022-08-01T15:16:14.642Z,24.01
2022-08-01T15:18:43.365Z,24.24
2022-08-01T15:21:17.328Z,24.29
2022-08-01T15:23:58.062Z,24.32
2022-08-01T15:26:26.633Z,24.35
2022-08-01T15:28:56.813Z,24.33
2022-08-01T15:31:25.376Z,24.31
2022-08-01T15:33:56.186Z,24.20
2022-08-01T15:36:25.797Z,24.26
2022-08-01T15:38:55.076Z,24.04
2022-08-01T15:41:23.952Z,24.23
2022-08-01T15:43:55.948Z,24.02
2022-08-01T15:46:26.638Z,24.21
2022-08-01T15:48:55.554Z,24.20
2022-08-01T15:51:24.167Z,24.16
2022-08-01T15:53:52.780Z,23.74
2022-08-01T15:56:21.224Z,24.14
2022-08-01T15:58:49.701Z,24.11
2022-08-01T16:01:18.653Z,23.84
2022-08-01T16:03:49.150Z,23.91
2022-08-01T16:06:17.758Z,24.07
2022-08-01T16:08:46.307Z,24.08
2022-08-01T16:11:15.066Z,24.08
2022-08-01T16:13:44.037Z,24.06
2022-08-01T16:16:12.714Z,24.06
2022-08-01T16:18:41.320Z,24.00
2022-08-01T16:21:12.924Z,23.96
2022-08-01T16:23:41.597Z,23.88
2022-08-01T16:26:15.605Z,23.82
2022-08-01T16:28:58.146Z,23.75
2022-08-01T16:31:37.526Z,23.67
2022-08-01T16:34:15.845Z,23.46
2022-08-01T16:36:45.711Z,23.63
2022-08-01T16:39:15.803Z,23.43
2022-08-01T16:41:46.841Z,23.49
2022-08-01T16:44:16.520Z,23.50
2022-08-01T16:46:57.113Z,23.47
2022-08-01T16:49:25.631Z,23.45
2022-08-01T16:51:55.505Z,23.41
2022-08-01T16:54:26.001Z,23.39
2022-08-01T16:56:56.096Z,23.34
2022-08-01T16:59:41.002Z,23.28
2022-08-01T17:02:11.427Z,23.27
2022-08-01T17:04:40.268Z,23.23
2022-08-01T17:07:10.455Z,22.92
2022-08-01T17:09:47.769Z,23.18
2022-08-01T17:25:47.548Z,22.84
2022-08-01T17:28:16.732Z,22.76
2022-08-01T17:30:45.418Z,22.32
2022-08-01T17:36:06.852Z,22.65
2022-08-01T17:38:36.404Z,22.62
2022-08-01T17:41:06.421Z,22.56
2022-08-01T17:43:35.201Z,22.58
2022-08-01T17:46:03.740Z,22.58
2022-08-01T17:48:32.219Z,22.57
2022-08-01T17:51:01.144Z,22.38
2022-08-01T17:53:29.546Z,22.44
2022-08-01T17:55:59.047Z,22.41
2022-08-01T17:58:36.792Z,21.99
2022-08-01T18:01:19.961Z,22.17
2022-08-01T18:03:49.032Z,21.30
2022-08-01T18:06:18.999Z,21.58
2022-08-01T18:08:49.590Z,22.05
2022-08-01T18:11:21.962Z,22.01
2022-08-01T18:13:51.940Z,21.98
2022-08-01T18:16:20.605Z,21.68
2022-08-01T18:18:49.125Z,21.90
2022-08-01T18:21:17.789Z,21.77
2022-08-01T18:23:51.271Z,21.79
2022-08-01T18:26:19.969Z,21.72
2022-08-01T18:28:50.481Z,21.52
2022-08-01T18:31:22.343Z,21.57
2022-08-01T18:33:52.283Z,21.51
2022-08-01T18:36:31.698Z,21.46
2022-08-01T18:39:06.193Z,21.39
2022-08-01T18:41:38.871Z,21.32
2022-08-01T18:44:09.561Z,21.28
2022-08-01T18:46:42.656Z,21.23
2022-08-01T18:49:13.389Z,21.17
2022-08-01T18:51:45.180Z,20.80
2022-08-01T18:54:16.827Z,21.00
2022-08-01T18:56:47.920Z,20.94
2022-08-01T18:59:17.931Z,20.89
2022-08-01T19:01:59.734Z,20.79
2022-08-01T19:04:31.042Z,20.72
2022-08-01T19:07:02.234Z,20.67
2022-08-01T19:09:32.729Z,20.18
2022-08-01T19:12:02.762Z,20.20
2022-08-01T19:14:32.711Z,19.96
2022-08-01T19:17:04.989Z,20.44
2022-08-01T19:19:33.859Z,20.38
2022-08-01T19:22:02.591Z,20.06
2022-08-01T19:24:31.144Z,20.37
2022-08-01T19:27:05.239Z,20.36
2022-08-01T19:29:43.734Z,20.31
2022-08-01T19:32:14.958Z,20.26
2022-08-01T19:34:51.491Z,20.23
2022-08-01T19:37:27.001Z,20.22
2022-08-01T19:39:58.507Z,18.94
2022-08-01T19:42:32.863Z,20.01
2022-08-01T19:45:02.709Z,19.98
2022-08-01T19:47:56.733Z,20.15
2022-08-01T19:51:10.947Z,18.61
2022-08-01T19:53:44.056Z,19.95
2022-08-01T19:56:14.165Z,20.05
2022-08-01T19:58:44.912Z,19.78
2022-08-01T20:01:16.370Z,19.99
2022-08-01T20:03:49.670Z,19.97
2022-08-01T20:06:18.695Z,18.92
2022-08-01T20:08:54.198Z,19.91
2022-08-01T20:11:24.254Z,19.63
2022-08-01T20:13:53.960Z,19.50
2022-08-01T20:16:23.201Z,19.66
2022-08-01T20:18:56.357Z,19.83
2022-08-01T20:21:26.723Z,19.75
2022-08-01T20:24:02.706Z,19.70
2022-08-01T20:26:33.305Z,19.64
2022-08-01T20:29:04.000Z,19.49
2022-08-01T20:31:42.882Z,19.31
2022-08-01T20:34:19.229Z,19.48
2022-08-01T20:36:56.420Z,19.55
2022-08-01T20:42:26.481Z,19.36
2022-08-01T20:44:57.582Z,18.75
2022-08-01T20:47:28.520Z,19.47
2022-08-01T20:50:49.523Z,19.42
2022-08-01T20:53:11.075Z,19.36
2022-08-01T20:55:47.053Z,19.36
2022-08-01T20:58:22.394Z,19.35
2022-08-01T21:00:58.219Z,19.35
2022-08-01T21:03:32.581Z,19.34
2022-08-01T21:06:09.306Z,19.27
2022-08-01T21:08:43.896Z,19.29
2022-08-01T21:11:17.487Z,19.27
2022-08-01T21:13:48.769Z,19.16
2022-08-01T21:16:25.031Z,19.19
2022-08-01T21:19:18.459Z,19.21
2022-08-01T21:21:52.873Z,19.21
2022-08-01T21:24:26.918Z,19.21
2022-08-01T21:26:56.410Z,19.23
2022-08-01T21:29:27.077Z,19.21
2022-08-01T21:32:09.918Z,19.19
2022-08-01T21:34:40.603Z,19.16
2022-08-01T21:37:11.205Z,19.14
2022-08-01T21:39:40.493Z,18.22
2022-08-01T21:42:09.712Z,19.08
2022-08-01T21:44:40.321Z,18.91
2022-08-01T21:47:11.756Z,19.03
2022-08-01T21:49:41.809Z,18.96
2022-08-01T21:52:15.504Z,18.91
2022-08-01T21:55:02.761Z,18.63
2022-08-01T21:57:43.963Z,18.82
2022-08-01T22:00:20.985Z,18.75
2022-08-01T22:03:02.238Z,18.70
2022-08-01T22:05:49.768Z,18.64
2022-08-01T22:08:26.111Z,18.48
2022-08-01T22:11:00.456Z,18.27
2022-08-01T22:13:29.398Z,18.57
2022-08-01T22:15:58.900Z,18.55
2022-08-01T22:18:29.292Z,18.30
2022-08-01T22:20:58.025Z,18.52
2022-08-01T22:23:29.421Z,18.50
2022-08-01T22:25:58.414Z,18.45
2022-08-01T22:28:27.173Z,18.41
2022-08-01T22:30:57.269Z,18.38
2022-08-01T22:33:26.983Z,18.36
2022-08-01T22:35:57.719Z,18.34
2022-08-01T22:38:28.087Z,18.31
2022-08-01T22:41:03.331Z,18.25
2022-08-01T22:43:36.370Z,18.20
2022-08-01T22:46:26.913Z,18.19
2022-08-01T22:49:02.757Z,18.17
2022-08-01T22:51:54.399Z,18.15
2022-08-01T22:54:33.426Z,17.98
2022-08-01T22:57:07.576Z,18.13
2022-08-01T22:59:47.965Z,18.13
2022-08-01T23:02:17.948Z,18.11
2022-08-01T23:04:49.572Z,18.12
2022-08-01T23:07:24.356Z,18.04
2022-08-01T23:09:57.127Z,18.12
2022-08-01T23:12:27.070Z,18.13
2022-08-01T23:14:56.870Z,18.14
2022-08-01T23:17:28.878Z,18.14
2022-08-01T23:19:59.962Z,18.14
2022-08-01T23:22:31.474Z,18.16
2022-08-01T23:25:04.556Z,18.15
2022-08-01T23:27:54.110Z,18.13
2022-08-01T23:30:27.362Z,18.11
2022-08-01T23:32:56.312Z,18.08
2022-08-01T23:35:25.222Z,18.04
2022-08-01T23:38:01.835Z,17.93
2022-08-01T23:40:34.510Z,17.87
2022-08-01T23:43:04.205Z,17.93
2022-08-01T23:46:02.102Z,17.91
2022-08-01T23:48:21.931Z,17.85
2022-08-01T23:50:52.584Z,17.83
2022-08-01T23:53:21.105Z,17.81
2022-08-01T23:55:51.026Z,17.79
2022-08-01T23:58:22.801Z,17.73
